sensor_id;sensor_type;location;lat;lon;timestamp;pressure;altitude;pressure_sealevel;temperature;humidity
80542;BME280;69870;51.460;8.842;2023-12-20T00:00:20;98180.06;;;6.73;85.96
80542;BME280;69870;51.460;8.842;2023-12-20T00:02:46;98191.63;;;6.74;86.28
80542;BME280;69870;51.460;8.842;2023-12-20T00:05:13;98182.06;;;6.76;85.97
80542;BME280;69870;51.460;8.842;2023-12-20T00:07:40;98178.25;;;6.77;86.10
80542;BME280;69870;51.460;8.842;2023-12-20T00:10:07;98179.50;;;6.80;86.06
80542;BME280;69870;51.460;8.842;2023-12-20T00:12:35;98179.16;;;6.81;86.40
80542;BME280;69870;51.460;8.842;2023-12-20T00:15:01;98178.06;;;6.82;86.11
80542;BME280;69870;51.460;8.842;2023-12-20T00:17:28;98178.06;;;6.82;86.07
80542;BME280;69870;51.460;8.842;2023-12-20T00:19:54;98168.81;;;6.83;86.04
80542;BME280;69870;51.460;8.842;2023-12-20T00:22:21;98159.59;;;6.84;86.39
80542;BME280;69870;51.460;8.842;2023-12-20T00:24:47;98159.59;;;6.84;86.10
80542;BME280;69870;51.460;8.842;2023-12-20T00:27:14;98161.97;;;6.86;85.91
80542;BME280;69870;51.460;8.842;2023-12-20T00:29:42;98158.47;;;6.85;86.14
80542;BME280;69870;51.460;8.842;2023-12-20T00:32:13;98164.66;;;6.86;86.01
80542;BME280;69870;51.460;8.842;2023-12-20T00:34:39;98170.88;;;6.86;85.69
80542;BME280;69870;51.460;8.842;2023-12-20T00:37:06;98161.63;;;6.87;86.00
80542;BME280;69870;51.460;8.842;2023-12-20T00:39:32;98157.00;;;6.88;85.67
80542;BME280;69870;51.460;8.842;2023-12-20T00:41:59;98155.91;;;6.89;85.83
80542;BME280;69870;51.460;8.842;2023-12-20T00:44:25;98171.78;;;6.90;85.76
80542;BME280;69870;51.460;8.842;2023-12-20T00:46:53;98167.16;;;6.91;85.79
80542;BME280;69870;51.460;8.842;2023-12-20T00:49:20;98165.22;;;6.91;85.92
80542;BME280;69870;51.460;8.842;2023-12-20T00:51:46;98165.56;;;6.90;85.92
80542;BME280;69870;51.460;8.842;2023-12-20T00:54:15;98163.66;;;6.90;85.97
80542;BME280;69870;51.460;8.842;2023-12-20T00:56:42;98167.47;;;6.89;85.85
80542;BME280;69870;51.460;8.842;2023-12-20T00:59:09;98167.03;;;6.87;85.71
80542;BME280;69870;51.460;8.842;2023-12-20T01:01:36;98175.13;;;6.87;85.68
80542;BME280;69870;51.460;8.842;2023-12-20T01:04:04;98170.06;;;6.86;85.55
80542;BME280;69870;51.460;8.842;2023-12-20T01:06:30;98165.66;;;6.81;86.08
80542;BME280;69870;51.460;8.842;2023-12-20T01:08:57;98169.63;;;6.84;85.83
80542;BME280;69870;51.460;8.842;2023-12-20T01:11:23;98167.25;;;6.82;86.25
80542;BME280;69870;51.460;8.842;2023-12-20T01:13:50;98159.00;;;6.79;86.10
80542;BME280;69870;51.460;8.842;2023-12-20T01:16:16;98159.34;;;6.77;85.85
80542;BME280;69870;51.460;8.842;2023-12-20T01:18:43;98170.00;;;6.74;85.81
80542;BME280;69870;51.460;8.842;2023-12-20T01:21:10;98175.31;;;6.70;85.87
80542;BME280;69870;51.460;8.842;2023-12-20T01:23:37;98173.41;;;6.71;86.12
80542;BME280;69870;51.460;8.842;2023-12-20T01:26:03;98177.22;;;6.70;86.02
80542;BME280;69870;51.460;8.842;2023-12-20T01:28:30;98178.66;;;6.67;86.40
80542;BME280;69870;51.460;8.842;2023-12-20T01:30:57;98182.34;;;6.62;86.06
80542;BME280;69870;51.460;8.842;2023-12-20T01:33:24;98177.28;;;6.61;85.62
80542;BME280;69870;51.460;8.842;2023-12-20T01:35:50;98179.00;;;6.65;85.92
80542;BME280;69870;51.460;8.842;2023-12-20T01:38:18;98176.03;;;6.58;85.74
80542;BME280;69870;51.460;8.842;2023-12-20T01:40:45;98180.19;;;6.56;85.70
80542;BME280;69870;51.460;8.842;2023-12-20T01:43:11;98191.00;;;6.56;85.95
80542;BME280;69870;51.460;8.842;2023-12-20T01:45:38;98185.47;;;6.52;85.79
80542;BME280;69870;51.460;8.842;2023-12-20T01:48:06;98186.25;;;6.53;85.61
80542;BME280;69870;51.460;8.842;2023-12-20T01:50:36;98183.09;;;6.51;85.57
80542;BME280;69870;51.460;8.842;2023-12-20T01:53:03;98188.63;;;6.54;85.76
80542;BME280;69870;51.460;8.842;2023-12-20T01:55:35;98196.63;;;6.51;85.62
80542;BME280;69870;51.460;8.842;2023-12-20T01:58:03;98200.75;;;6.48;85.34
80542;BME280;69870;51.460;8.842;2023-12-20T02:00:31;98204.44;;;6.44;85.35
80542;BME280;69870;51.460;8.842;2023-12-20T02:03:00;98206.00;;;6.45;86.01
80542;BME280;69870;51.460;8.842;2023-12-20T02:05:29;98204.91;;;6.46;85.71
80542;BME280;69870;51.460;8.842;2023-12-20T02:07:55;98205.69;;;6.46;85.26
80542;BME280;69870;51.460;8.842;2023-12-20T02:10:22;98216.34;;;6.43;85.51
80542;BME280;69870;51.460;8.842;2023-12-20T02:12:51;98207.47;;;6.42;85.58
80542;BME280;69870;51.460;8.842;2023-12-20T02:15:17;98211.75;;;6.43;85.54
80542;BME280;69870;51.460;8.842;2023-12-20T02:17:45;98202.22;;;6.46;85.42
80542;BME280;69870;51.460;8.842;2023-12-20T02:20:12;98214.47;;;6.43;85.32
80542;BME280;69870;51.460;8.842;2023-12-20T02:22:41;98208.13;;;6.39;85.08
80542;BME280;69870;51.460;8.842;2023-12-20T02:25:07;98186.19;;;6.41;85.26
80542;BME280;69870;51.460;8.842;2023-12-20T02:27:34;98182.13;;;6.35;84.97
80542;BME280;69870;51.460;8.842;2023-12-20T02:30:01;98188.16;;;6.32;85.28
80542;BME280;69870;51.460;8.842;2023-12-20T02:32:28;98194.69;;;6.31;84.94
80542;BME280;69870;51.460;8.842;2023-12-20T02:34:55;98190.75;;;6.28;84.91
80542;BME280;69870;51.460;8.842;2023-12-20T02:37:22;98184.09;;;6.26;85.04
80542;BME280;69870;51.460;8.842;2023-12-20T02:39:50;98176.00;;;6.26;85.20
80542;BME280;69870;51.460;8.842;2023-12-20T02:42:17;98176.00;;;6.26;85.01
80542;BME280;69870;51.460;8.842;2023-12-20T02:44:43;98184.88;;;6.26;84.62
80542;BME280;69870;51.460;8.842;2023-12-20T02:47:10;98180.00;;;6.20;84.45
80542;BME280;69870;51.460;8.842;2023-12-20T02:49:36;98185.41;;;6.20;84.54
80542;BME280;69870;51.460;8.842;2023-12-20T02:52:04;98189.22;;;6.19;84.90
80542;BME280;69870;51.460;8.842;2023-12-20T02:54:30;98200.66;;;6.16;84.62
80542;BME280;69870;51.460;8.842;2023-12-20T02:56:58;98191.91;;;6.19;84.32
80542;BME280;69870;51.460;8.842;2023-12-20T02:59:25;98196.50;;;6.18;84.35
80542;BME280;69870;51.460;8.842;2023-12-20T03:01:51;98201.16;;;6.18;84.39
80542;BME280;69870;51.460;8.842;2023-12-20T03:04:18;98214.84;;;6.13;84.37
80542;BME280;69870;51.460;8.842;2023-12-20T03:06:44;98225.63;;;6.13;84.69
80542;BME280;69870;51.460;8.842;2023-12-20T03:09:11;98219.31;;;6.09;84.40
80542;BME280;69870;51.460;8.842;2023-12-20T03:11:39;98208.97;;;6.11;84.34
80542;BME280;69870;51.460;8.842;2023-12-20T03:14:07;98206.13;;;6.07;84.04
80542;BME280;69870;51.460;8.842;2023-12-20T03:16:33;98212.50;;;6.03;84.58
80542;BME280;69870;51.460;8.842;2023-12-20T03:19:00;98207.78;;;6.00;84.00
80542;BME280;69870;51.460;8.842;2023-12-20T03:21:27;98211.91;;;5.97;84.52
80542;BME280;69870;51.460;8.842;2023-12-20T03:23:53;98215.28;;;5.85;84.09
80542;BME280;69870;51.460;8.842;2023-12-20T03:26:20;98213.69;;;5.84;84.50
80542;BME280;69870;51.460;8.842;2023-12-20T03:28:47;98213.41;;;5.86;84.60
80542;BME280;69870;51.460;8.842;2023-12-20T03:31:15;98205.31;;;5.86;84.26
80542;BME280;69870;51.460;8.842;2023-12-20T03:33:42;98207.66;;;5.87;84.21
80542;BME280;69870;51.460;8.842;2023-12-20T03:36:08;98210.50;;;5.82;84.33
80542;BME280;69870;51.460;8.842;2023-12-20T03:38:35;98202.75;;;5.81;84.03
80542;BME280;69870;51.460;8.842;2023-12-20T03:41:01;98204.19;;;5.78;84.23
80542;BME280;69870;51.460;8.842;2023-12-20T03:43:28;98201.34;;;5.75;84.56
80542;BME280;69870;51.460;8.842;2023-12-20T03:45:54;98193.56;;;5.73;84.09
80542;BME280;69870;51.460;8.842;2023-12-20T03:48:22;98184.72;;;5.73;84.16
80542;BME280;69870;51.460;8.842;2023-12-20T03:50:49;98188.84;;;5.70;84.52
80542;BME280;69870;51.460;8.842;2023-12-20T03:53:15;98189.94;;;5.69;84.11
80542;BME280;69870;51.460;8.842;2023-12-20T03:55:42;98194.41;;;5.65;83.95
80542;BME280;69870;51.460;8.842;2023-12-20T03:58:09;98197.75;;;5.62;84.38
80542;BME280;69870;51.460;8.842;2023-12-20T04:00:35;98196.66;;;5.63;83.99
80542;BME280;69870;51.460;8.842;2023-12-20T04:03:02;98188.72;;;5.58;84.26
80542;BME280;69870;51.460;8.842;2023-12-20T04:05:30;98190.31;;;5.59;83.80
80542;BME280;69870;51.460;8.842;2023-12-20T04:07:57;98191.13;;;5.60;83.81
80542;BME280;69870;51.460;8.842;2023-12-20T04:10:23;98193.03;;;5.59;84.38
80542;BME280;69870;51.460;8.842;2023-12-20T04:12:50;98180.47;;;5.63;84.03
80542;BME280;69870;51.460;8.842;2023-12-20T04:15:16;98178.88;;;5.62;83.75
80542;BME280;69870;51.460;8.842;2023-12-20T04:17:43;98185.84;;;5.63;84.11
80542;BME280;69870;51.460;8.842;2023-12-20T04:20:10;98175.88;;;5.64;83.91
80542;BME280;69870;51.460;8.842;2023-12-20T04:22:37;98165.38;;;5.62;83.66
80542;BME280;69870;51.460;8.842;2023-12-20T04:25:04;98175.88;;;5.64;84.12
80542;BME280;69870;51.460;8.842;2023-12-20T04:27:31;98181.91;;;5.61;83.20
80542;BME280;69870;51.460;8.842;2023-12-20T04:29:57;98195.38;;;5.61;84.02
80542;BME280;69870;51.460;8.842;2023-12-20T04:32:24;98174.16;;;5.59;83.30
80542;BME280;69870;51.460;8.842;2023-12-20T04:34:50;98188.88;;;5.62;83.39
80542;BME280;69870;51.460;8.842;2023-12-20T04:37:17;98182.69;;;5.61;83.60
80542;BME280;69870;51.460;8.842;2023-12-20T04:39:45;98182.69;;;5.61;83.32
80542;BME280;69870;51.460;8.842;2023-12-20T04:42:11;98184.94;;;5.59;83.30
80542;BME280;69870;51.460;8.842;2023-12-20T04:44:38;98185.22;;;5.58;83.67
80542;BME280;69870;51.460;8.842;2023-12-20T04:47:05;98176.03;;;5.59;83.60
80542;BME280;69870;51.460;8.842;2023-12-20T04:49:31;98181.09;;;5.60;83.34
80542;BME280;69870;51.460;8.842;2023-12-20T04:51:58;98190.78;;;5.61;83.51
80542;BME280;69870;51.460;8.842;2023-12-20T04:54:24;98180.00;;;5.61;82.83
80542;BME280;69870;51.460;8.842;2023-12-20T04:56:52;98181.91;;;5.61;83.16
80542;BME280;69870;51.460;8.842;2023-12-20T04:59:18;98196.19;;;5.61;83.05
80542;BME280;69870;51.460;8.842;2023-12-20T05:01:45;98188.22;;;5.65;82.66
80542;BME280;69870;51.460;8.842;2023-12-20T05:04:12;98202.03;;;5.63;82.67
80542;BME280;69870;51.460;8.842;2023-12-20T05:06:38;98192.34;;;5.62;82.76
80542;BME280;69870;51.460;8.842;2023-12-20T05:09:05;98176.84;;;5.59;82.61
80542;BME280;69870;51.460;8.842;2023-12-20T05:11:31;98177.94;;;5.58;83.06
80542;BME280;69870;51.460;8.842;2023-12-20T05:13:59;98177.94;;;5.58;82.54
80542;BME280;69870;51.460;8.842;2023-12-20T05:16:26;98177.00;;;5.54;82.90
80542;BME280;69870;51.460;8.842;2023-12-20T05:18:52;98177.81;;;5.55;82.51
80542;BME280;69870;51.460;8.842;2023-12-20T05:21:19;98174.78;;;5.56;82.59
80542;BME280;69870;51.460;8.842;2023-12-20T05:23:45;98174.94;;;5.51;82.85
80542;BME280;69870;51.460;8.842;2023-12-20T05:26:12;98174.03;;;5.47;82.61
80542;BME280;69870;51.460;8.842;2023-12-20T05:28:38;98166.59;;;5.44;82.70
80542;BME280;69870;51.460;8.842;2023-12-20T05:31:06;98183.41;;;5.41;82.74
80542;BME280;69870;51.460;8.842;2023-12-20T05:33:33;98183.28;;;5.38;82.95
80542;BME280;69870;51.460;8.842;2023-12-20T05:35:59;98188.50;;;5.34;82.68
80542;BME280;69870;51.460;8.842;2023-12-20T05:38:26;98178.84;;;5.33;82.71
80542;BME280;69870;51.460;8.842;2023-12-20T05:40:53;98185.97;;;5.29;82.51
80542;BME280;69870;51.460;8.842;2023-12-20T05:43:19;98187.63;;;5.22;82.47
80542;BME280;69870;51.460;8.842;2023-12-20T05:45:46;98188.56;;;5.17;82.44
80542;BME280;69870;51.460;8.842;2023-12-20T05:48:14;98183.69;;;5.10;82.94
80542;BME280;69870;51.460;8.842;2023-12-20T05:50:40;98185.91;;;5.08;82.75
80542;BME280;69870;51.460;8.842;2023-12-20T05:53:07;98197.00;;;5.07;82.87
80542;BME280;69870;51.460;8.842;2023-12-20T05:55:34;98190.97;;;5.10;82.69
80542;BME280;69870;51.460;8.842;2023-12-20T05:58:00;98183.34;;;5.12;83.23
80542;BME280;69870;51.460;8.842;2023-12-20T06:00:27;98186.22;;;5.15;83.17
80542;BME280;69870;51.460;8.842;2023-12-20T06:02:53;98180.31;;;5.22;82.81
80542;BME280;69870;51.460;8.842;2023-12-20T06:05:21;98179.66;;;5.25;81.84
80542;BME280;69870;51.460;8.842;2023-12-20T06:07:48;98182.81;;;5.27;82.82
80542;BME280;69870;51.460;8.842;2023-12-20T06:10:16;98178.69;;;5.30;82.19
80542;BME280;69870;51.460;8.842;2023-12-20T06:12:42;98179.97;;;5.32;82.30
80542;BME280;69870;51.460;8.842;2023-12-20T06:15:09;98185.81;;;5.34;82.20
80542;BME280;69870;51.460;8.842;2023-12-20T06:17:36;98178.66;;;5.38;82.08
80542;BME280;69870;51.460;8.842;2023-12-20T06:20:03;98187.53;;;5.39;81.90
80542;BME280;69870;51.460;8.842;2023-12-20T06:22:34;98180.25;;;5.39;81.96
80542;BME280;69870;51.460;8.842;2023-12-20T06:25:01;98178.81;;;5.42;82.06
80542;BME280;69870;51.460;8.842;2023-12-20T06:27:28;98186.56;;;5.43;82.42
80542;BME280;69870;51.460;8.842;2023-12-20T06:29:54;98184.97;;;5.42;81.96
80542;BME280;69870;51.460;8.842;2023-12-20T06:32:21;98182.94;;;5.39;81.67
80542;BME280;69870;51.460;8.842;2023-12-20T06:34:48;98172.34;;;5.34;81.89
80542;BME280;69870;51.460;8.842;2023-12-20T06:37:15;98174.56;;;5.32;82.06
80542;BME280;69870;51.460;8.842;2023-12-20T06:39:43;98174.56;;;5.32;82.57
80542;BME280;69870;51.460;8.842;2023-12-20T06:42:10;98178.19;;;5.36;82.31
80542;BME280;69870;51.460;8.842;2023-12-20T06:44:36;98170.28;;;5.31;82.42
80542;BME280;69870;51.460;8.842;2023-12-20T06:47:04;98179.66;;;5.25;81.99
80542;BME280;69870;51.460;8.842;2023-12-20T06:49:30;98172.88;;;5.19;82.51
80542;BME280;69870;51.460;8.842;2023-12-20T06:51:57;98173.50;;;5.16;82.89
80542;BME280;69870;51.460;8.842;2023-12-20T06:54:23;98158.47;;;5.15;82.80
80542;BME280;69870;51.460;8.842;2023-12-20T06:56:51;98171.94;;;5.15;82.93
80542;BME280;69870;51.460;8.842;2023-12-20T06:59:18;98177.78;;;5.17;82.64
80542;BME280;69870;51.460;8.842;2023-12-20T07:01:47;98176.53;;;5.14;82.79
80542;BME280;69870;51.460;8.842;2023-12-20T07:04:14;98176.88;;;5.13;82.84
80542;BME280;69870;51.460;8.842;2023-12-20T07:06:40;98175.56;;;5.19;82.61
80542;BME280;69870;51.460;8.842;2023-12-20T07:09:07;98171.09;;;5.23;82.00
80542;BME280;69870;51.460;8.842;2023-12-20T07:11:33;98175.88;;;5.26;82.46
80542;BME280;69870;51.460;8.842;2023-12-20T07:14:01;98165.09;;;5.26;82.36
80542;BME280;69870;51.460;8.842;2023-12-20T07:16:28;98179.50;;;5.30;81.65
80542;BME280;69870;51.460;8.842;2023-12-20T07:18:55;98179.03;;;5.28;81.89
80542;BME280;69870;51.460;8.842;2023-12-20T07:21:22;98180.75;;;5.33;81.55
80542;BME280;69870;51.460;8.842;2023-12-20T07:23:48;98178.53;;;5.35;82.08
80542;BME280;69870;51.460;8.842;2023-12-20T07:26:15;98179.03;;;5.28;81.51
80542;BME280;69870;51.460;8.842;2023-12-20T07:28:42;98186.63;;;5.35;81.49
80542;BME280;69870;51.460;8.842;2023-12-20T07:31:09;98185.81;;;5.34;81.55
80542;BME280;69870;51.460;8.842;2023-12-20T07:33:36;98197.41;;;5.35;81.29
80542;BME280;69870;51.460;8.842;2023-12-20T07:36:03;98197.53;;;5.38;82.09
80542;BME280;69870;51.460;8.842;2023-12-20T07:38:30;98202.63;;;5.40;81.30
80542;BME280;69870;51.460;8.842;2023-12-20T07:40:56;98189.91;;;5.40;81.01
80542;BME280;69870;51.460;8.842;2023-12-20T07:43:23;98192.09;;;5.47;80.68
80542;BME280;69870;51.460;8.842;2023-12-20T07:45:49;98194.97;;;5.50;81.29
80542;BME280;69870;51.460;8.842;2023-12-20T07:48:17;98187.97;;;5.49;81.07
80542;BME280;69870;51.460;8.842;2023-12-20T07:50:44;98199.22;;;5.51;81.04
80542;BME280;69870;51.460;8.842;2023-12-20T07:53:10;98197.66;;;5.50;81.02
80542;BME280;69870;51.460;8.842;2023-12-20T07:55:37;98198.59;;;5.54;81.64
80542;BME280;69870;51.460;8.842;2023-12-20T07:58:03;98208.28;;;5.55;81.08
80542;BME280;69870;51.460;8.842;2023-12-20T08:00:30;98213.00;;;5.58;80.76
80542;BME280;69870;51.460;8.842;2023-12-20T08:02:57;98205.56;;;5.55;81.47
80542;BME280;69870;51.460;8.842;2023-12-20T08:05:25;98209.19;;;5.59;81.06
80542;BME280;69870;51.460;8.842;2023-12-20T08:07:51;98198.72;;;5.58;81.57
80542;BME280;69870;51.460;8.842;2023-12-20T08:10:18;98206.00;;;5.66;80.88
80542;BME280;69870;51.460;8.842;2023-12-20T08:12:45;98199.34;;;5.63;80.90
80542;BME280;69870;51.460;8.842;2023-12-20T08:15:11;98199.16;;;5.68;81.18
80542;BME280;69870;51.460;8.842;2023-12-20T08:17:38;98200.28;;;5.67;81.14
80542;BME280;69870;51.460;8.842;2023-12-20T08:20:05;98191.38;;;5.67;81.15
80542;BME280;69870;51.460;8.842;2023-12-20T08:22:33;98193.78;;;5.68;81.05
80542;BME280;69870;51.460;8.842;2023-12-20T08:25:00;98194.88;;;5.67;81.50
80542;BME280;69870;51.460;8.842;2023-12-20T08:27:26;98181.25;;;5.64;81.27
80542;BME280;69870;51.460;8.842;2023-12-20T08:29:53;98190.63;;;5.66;81.97
80542;BME280;69870;51.460;8.842;2023-12-20T08:32:20;98196.13;;;5.70;81.68
80542;BME280;69870;51.460;8.842;2023-12-20T08:34:46;98194.06;;;5.75;81.67
80542;BME280;69870;51.460;8.842;2023-12-20T08:37:13;98199.72;;;5.82;81.19
80542;BME280;69870;51.460;8.842;2023-12-20T08:39:40;98188.00;;;5.78;80.82
80542;BME280;69870;51.460;8.842;2023-12-20T08:42:08;98193.09;;;5.80;80.92
80542;BME280;69870;51.460;8.842;2023-12-20T08:44:35;98198.16;;;5.81;81.39
80542;BME280;69870;51.460;8.842;2023-12-20T08:47:02;98197.81;;;5.83;81.19
80542;BME280;69870;51.460;8.842;2023-12-20T08:49:28;98181.16;;;5.81;80.83
80542;BME280;69870;51.460;8.842;2023-12-20T08:51:55;98189.09;;;5.86;80.62
80542;BME280;69870;51.460;8.842;2023-12-20T08:54:21;98183.72;;;5.86;80.63
80542;BME280;69870;51.460;8.842;2023-12-20T08:56:49;98186.72;;;5.84;80.67
80542;BME280;69870;51.460;8.842;2023-12-20T08:59:16;98182.91;;;5.85;80.86
80542;BME280;69870;51.460;8.842;2023-12-20T09:01:44;98185.94;;;5.84;80.57
80542;BME280;69870;51.460;8.842;2023-12-20T09:04:10;98183.53;;;5.82;80.48
80542;BME280;69870;51.460;8.842;2023-12-20T09:06:37;98182.56;;;5.87;80.68
80542;BME280;69870;51.460;8.842;2023-12-20T09:09:03;98184.50;;;5.86;80.90
80542;BME280;69870;51.460;8.842;2023-12-20T09:11:30;98189.91;;;5.86;80.70
80542;BME280;69870;51.460;8.842;2023-12-20T09:13:58;98187.66;;;5.88;80.90
80542;BME280;69870;51.460;8.842;2023-12-20T09:16:25;98191.63;;;5.91;80.35
80542;BME280;69870;51.460;8.842;2023-12-20T09:18:51;98177.00;;;5.92;80.83
80542;BME280;69870;51.460;8.842;2023-12-20T09:21:18;98187.47;;;5.93;80.99
80542;BME280;69870;51.460;8.842;2023-12-20T09:23:45;98172.41;;;5.93;80.84
80542;BME280;69870;51.460;8.842;2023-12-20T09:26:11;98171.28;;;5.93;80.87
80542;BME280;69870;51.460;8.842;2023-12-20T09:28:38;98180.03;;;5.90;80.89
80542;BME280;69870;51.460;8.842;2023-12-20T09:31:07;98186.22;;;5.91;80.81
80542;BME280;69870;51.460;8.842;2023-12-20T09:33:33;98182.72;;;5.90;81.19
80542;BME280;69870;51.460;8.842;2023-12-20T09:36:00;98180.03;;;5.90;80.65
80542;BME280;69870;51.460;8.842;2023-12-20T09:38:27;98183.84;;;5.89;81.24
80542;BME280;69870;51.460;8.842;2023-12-20T09:40:54;98171.94;;;5.90;80.73
80542;BME280;69870;51.460;8.842;2023-12-20T09:43:23;98179.69;;;5.92;80.61
80542;BME280;69870;51.460;8.842;2023-12-20T09:45:53;98178.59;;;5.93;80.41
80542;BME280;69870;51.460;8.842;2023-12-20T09:48:21;98176.66;;;5.93;80.56
80542;BME280;69870;51.460;8.842;2023-12-20T09:50:48;98178.72;;;5.97;80.93
80542;BME280;69870;51.460;8.842;2023-12-20T09:53:15;98170.63;;;5.97;80.27
80542;BME280;69870;51.460;8.842;2023-12-20T09:55:42;98169.19;;;5.99;80.31
80542;BME280;69870;51.460;8.842;2023-12-20T09:58:09;98164.88;;;5.98;80.20
80542;BME280;69870;51.460;8.842;2023-12-20T10:00:36;98145.09;;;5.94;80.07
80542;BME280;69870;51.460;8.842;2023-12-20T10:03:03;98152.38;;;5.93;80.22
80542;BME280;69870;51.460;8.842;2023-12-20T10:05:34;98143.31;;;5.98;80.28
80542;BME280;69870;51.460;8.842;2023-12-20T10:08:01;98147.25;;;6.01;80.09
80542;BME280;69870;51.460;8.842;2023-12-20T10:10:28;98144.91;;;5.99;79.96
80542;BME280;69870;51.460;8.842;2023-12-20T10:13:02;98142.66;;;6.01;80.14
80542;BME280;69870;51.460;8.842;2023-12-20T10:15:30;98135.34;;;6.02;79.95
80542;BME280;69870;51.460;8.842;2023-12-20T10:18:04;98148.06;;;6.01;79.76
80542;BME280;69870;51.460;8.842;2023-12-20T10:20:31;98129.63;;;6.03;80.31
80542;BME280;69870;51.460;8.842;2023-12-20T10:23:00;98142.00;;;6.04;80.16
80542;BME280;69870;51.460;8.842;2023-12-20T10:25:27;98138.97;;;6.06;79.95
80542;BME280;69870;51.460;8.842;2023-12-20T10:28:09;98123.06;;;6.13;80.11
80542;BME280;69870;51.460;8.842;2023-12-20T10:30:36;98119.47;;;6.21;80.01
80542;BME280;69870;51.460;8.842;2023-12-20T10:33:02;98128.75;;;6.32;79.46
80542;BME280;69870;51.460;8.842;2023-12-20T10:35:29;98129.13;;;6.42;79.91
80542;BME280;69870;51.460;8.842;2023-12-20T10:37:56;98114.78;;;6.50;79.35
80542;BME280;69870;51.460;8.842;2023-12-20T10:40:25;98113.78;;;6.55;79.15
80542;BME280;69870;51.460;8.842;2023-12-20T10:42:56;98112.25;;;6.66;79.73
80542;BME280;69870;51.460;8.842;2023-12-20T10:45:22;98122.97;;;6.75;79.11
80542;BME280;69870;51.460;8.842;2023-12-20T10:47:50;98118.47;;;6.79;78.99
80542;BME280;69870;51.460;8.842;2023-12-20T10:50:18;98110.47;;;6.70;78.88
80542;BME280;69870;51.460;8.842;2023-12-20T10:52:45;98122.16;;;6.62;79.08
80542;BME280;69870;51.460;8.842;2023-12-20T10:55:13;98109.63;;;6.57;79.34
80542;BME280;69870;51.460;8.842;2023-12-20T10:57:42;98109.28;;;6.59;79.19
80542;BME280;69870;51.460;8.842;2023-12-20T11:00:11;98100.28;;;6.55;79.30
80542;BME280;69870;51.460;8.842;2023-12-20T11:02:40;98103.63;;;6.52;79.60
80542;BME280;69870;51.460;8.842;2023-12-20T11:05:13;98096.78;;;6.54;79.68
80542;BME280;69870;51.460;8.842;2023-12-20T11:07:48;98095.53;;;6.52;79.50
80542;BME280;69870;51.460;8.842;2023-12-20T11:10:23;98097.44;;;6.51;79.34
80542;BME280;69870;51.460;8.842;2023-12-20T11:12:56;98085.19;;;6.54;79.38
80542;BME280;69870;51.460;8.842;2023-12-20T11:15:24;98086.78;;;6.55;79.38
80542;BME280;69870;51.460;8.842;2023-12-20T11:17:55;98089.94;;;6.57;79.83
80542;BME280;69870;51.460;8.842;2023-12-20T11:20:22;98082.28;;;6.59;79.28
80542;BME280;69870;51.460;8.842;2023-12-20T11:22:53;98080.47;;;6.63;79.62
80542;BME280;69870;51.460;8.842;2023-12-20T11:25:20;98084.88;;;6.68;79.34
80542;BME280;69870;51.460;8.842;2023-12-20T11:28:07;98081.38;;;6.67;79.17
80542;BME280;69870;51.460;8.842;2023-12-20T11:30:41;98092.44;;;6.62;79.06
80542;BME280;69870;51.460;8.842;2023-12-20T11:33:08;98078.94;;;6.62;79.02
80542;BME280;69870;51.460;8.842;2023-12-20T11:35:34;98073.28;;;6.67;79.29
80542;BME280;69870;51.460;8.842;2023-12-20T11:38:02;98078.94;;;6.62;79.18
80542;BME280;69870;51.460;8.842;2023-12-20T11:40:33;98074.63;;;6.61;79.23
80542;BME280;69870;51.460;8.842;2023-12-20T11:43:03;98081.38;;;6.67;78.96
80542;BME280;69870;51.460;8.842;2023-12-20T11:45:30;98073.97;;;6.64;79.18
80542;BME280;69870;51.460;8.842;2023-12-20T11:47:56;98079.38;;;6.64;79.08
80542;BME280;69870;51.460;8.842;2023-12-20T11:50:24;98087.34;;;6.60;79.11
80542;BME280;69870;51.460;8.842;2023-12-20T11:52:52;98077.69;;;6.59;79.21
80542;BME280;69870;51.460;8.842;2023-12-20T11:55:19;98072.13;;;6.56;79.13
80542;BME280;69870;51.460;8.842;2023-12-20T11:57:45;98079.47;;;6.55;79.28
80542;BME280;69870;51.460;8.842;2023-12-20T12:00:14;98059.75;;;6.55;79.44
80542;BME280;69870;51.460;8.842;2023-12-20T12:02:41;98060.56;;;6.55;79.51
80542;BME280;69870;51.460;8.842;2023-12-20T12:05:08;98042.41;;;6.56;79.48
80542;BME280;69870;51.460;8.842;2023-12-20T12:07:35;98054.34;;;6.55;79.56
80542;BME280;69870;51.460;8.842;2023-12-20T12:10:02;98036.47;;;6.62;79.37
80542;BME280;69870;51.460;8.842;2023-12-20T12:12:29;98051.56;;;6.63;79.25
80542;BME280;69870;51.460;8.842;2023-12-20T12:14:57;98048.53;;;6.65;78.93
80542;BME280;69870;51.460;8.842;2023-12-20T12:17:25;98030.28;;;6.62;79.42
80542;BME280;69870;51.460;8.842;2023-12-20T12:20:02;98032.06;;;6.58;79.63
80542;BME280;69870;51.460;8.842;2023-12-20T12:22:29;98034.56;;;6.51;79.76
80542;BME280;69870;51.460;8.842;2023-12-20T12:24:59;98033.19;;;6.57;79.41
80542;BME280;69870;51.460;8.842;2023-12-20T12:27:25;98026.44;;;6.51;79.89
80542;BME280;69870;51.460;8.842;2023-12-20T12:30:03;98035.00;;;6.53;79.66
80542;BME280;69870;51.460;8.842;2023-12-20T12:32:33;98032.97;;;6.50;79.75
80542;BME280;69870;51.460;8.842;2023-12-20T12:35:00;98022.50;;;6.48;79.87
80542;BME280;69870;51.460;8.842;2023-12-20T12:37:28;98027.09;;;6.48;80.14
80542;BME280;69870;51.460;8.842;2023-12-20T12:39:55;98006.59;;;6.47;80.13
80542;BME280;69870;51.460;8.842;2023-12-20T12:42:23;98028.22;;;6.47;80.31
80542;BME280;69870;51.460;8.842;2023-12-20T12:44:53;98019.09;;;6.51;79.88
80542;BME280;69870;51.460;8.842;2023-12-20T12:47:20;98022.50;;;6.48;79.95
80542;BME280;69870;51.460;8.842;2023-12-20T12:49:49;98009.31;;;6.47;80.33
80542;BME280;69870;51.460;8.842;2023-12-20T12:52:17;98003.91;;;6.47;80.16
80542;BME280;69870;51.460;8.842;2023-12-20T12:54:44;98001.19;;;6.47;80.18
80542;BME280;69870;51.460;8.842;2023-12-20T12:57:13;97990.84;;;6.49;80.33
80542;BME280;69870;51.460;8.842;2023-12-20T12:59:40;97998.53;;;6.59;79.84
80542;BME280;69870;51.460;8.842;2023-12-20T13:02:06;97994.25;;;6.58;79.65
80542;BME280;69870;51.460;8.842;2023-12-20T13:04:33;97985.94;;;6.63;80.04
80542;BME280;69870;51.460;8.842;2023-12-20T13:07:01;97990.78;;;6.70;79.71
80542;BME280;69870;51.460;8.842;2023-12-20T13:09:28;97988.88;;;6.82;79.21